createdAt,value
2023-03-22T00:01:41.008Z,9.60
2023-03-22T00:04:07.979Z,9.70
2023-03-22T00:06:34.870Z,9.70
2023-03-22T00:09:01.770Z,9.70
2023-03-22T00:11:28.663Z,9.60
2023-03-22T00:13:55.536Z,9.60
2023-03-22T00:16:22.741Z,9.60
2023-03-22T00:18:49.716Z,9.60
2023-03-22T00:21:17.269Z,9.60
2023-03-22T00:23:44.607Z,9.60
2023-03-22T00:26:12.006Z,9.60
2023-03-22T00:28:39.224Z,9.60
2023-03-22T00:31:06.668Z,9.60
2023-03-22T00:33:33.607Z,9.60
2023-03-22T00:36:01.657Z,9.60
2023-03-22T00:38:42.398Z,9.60
2023-03-22T00:41:17.541Z,9.60
2023-03-22T00:43:44.898Z,9.60
2023-03-22T00:46:12.464Z,9.50
2023-03-22T00:48:39.534Z,9.50
2023-03-22T00:51:07.165Z,9.60
2023-03-22T00:53:36.421Z,9.60
2023-03-22T00:56:04.593Z,9.60
2023-03-22T00:58:39.337Z,9.50
2023-03-22T01:01:09.347Z,9.60
2023-03-22T01:03:36.367Z,9.60
2023-03-22T01:06:03.677Z,9.60
2023-03-22T01:08:39.042Z,9.60
2023-03-22T01:11:07.221Z,9.60
2023-03-22T01:13:34.449Z,9.60
2023-03-22T01:16:01.473Z,9.60
2023-03-22T01:18:28.428Z,9.60
2023-03-22T01:20:55.458Z,9.60
2023-03-22T01:23:22.367Z,9.60
2023-03-22T01:25:49.354Z,9.60
2023-03-22T01:28:16.328Z,9.60
2023-03-22T01:30:43.445Z,9.70
2023-03-22T01:33:10.396Z,9.70
2023-03-22T01:35:37.458Z,9.70
2023-03-22T01:38:05.853Z,9.70
2023-03-22T01:40:37.088Z,9.70
2023-03-22T01:43:04.078Z,9.70
2023-03-22T01:45:35.937Z,9.70
2023-03-22T01:48:23.608Z,9.80
2023-03-22T01:50:57.587Z,9.80
2023-03-22T01:53:27.362Z,9.80
2023-03-22T01:55:55.701Z,9.80
2023-03-22T01:58:27.910Z,9.80
2023-03-22T02:00:58.950Z,9.80
2023-03-22T02:03:51.601Z,9.80
2023-03-22T02:06:20.427Z,9.80
2023-03-22T02:08:53.120Z,9.90
2023-03-22T02:11:25.228Z,9.90
2023-03-22T02:14:13.139Z,9.90
2023-03-22T02:17:34.085Z,9.90
2023-03-22T02:20:10.221Z,9.90
2023-03-22T02:22:53.243Z,9.90
2023-03-22T02:25:20.445Z,10.00
2023-03-22T02:28:10.581Z,10.00
2023-03-22T02:30:56.473Z,10.00
2023-03-22T02:33:35.937Z,10.00
2023-03-22T02:36:05.986Z,10.00
2023-03-22T02:38:53.125Z,10.00
2023-03-22T02:41:20.072Z,10.00
2023-03-22T02:44:05.804Z,10.00
2023-03-22T02:46:42.098Z,10.00
2023-03-22T02:49:16.683Z,10.00
2023-03-22T02:51:56.960Z,10.00
2023-03-22T02:54:39.177Z,10.00
2023-03-22T02:57:09.862Z,10.10
2023-03-22T02:59:38.516Z,10.10
2023-03-22T03:02:07.286Z,10.10
2023-03-22T03:04:39.712Z,10.10
2023-03-22T03:07:09.375Z,10.10
2023-03-22T03:09:39.279Z,10.10
2023-03-22T03:12:24.518Z,10.10
2023-03-22T03:14:54.215Z,10.10
2023-03-22T03:17:44.355Z,10.10
2023-03-22T03:20:12.562Z,10.10
2023-03-22T03:22:39.393Z,10.10
2023-03-22T03:25:10.197Z,10.10
2023-03-22T03:27:44.196Z,10.10
2023-03-22T03:30:16.384Z,10.20
2023-03-22T03:32:46.775Z,10.10
2023-03-22T03:35:25.566Z,10.20
2023-03-22T03:37:54.857Z,10.20
2023-03-22T03:40:27.977Z,10.20
2023-03-22T03:42:56.415Z,10.20
2023-03-22T03:45:25.097Z,10.20
2023-03-22T03:47:57.022Z,10.20
2023-03-22T03:50:25.187Z,10.20
2023-03-22T03:52:53.258Z,10.20
2023-03-22T03:55:20.612Z,10.20
2023-03-22T03:57:47.553Z,10.20
2023-03-22T04:00:15.008Z,10.20
2023-03-22T04:03:02.002Z,10.20
2023-03-22T04:05:43.897Z,10.20
2023-03-22T04:08:10.919Z,10.20
2023-03-22T04:10:38.326Z,10.30
2023-03-22T04:13:05.676Z,10.30
2023-03-22T04:15:33.042Z,10.30
2023-03-22T04:18:03.138Z,10.30
2023-03-22T04:20:32.599Z,10.30
2023-03-22T04:23:00.439Z,10.30
2023-03-22T04:25:30.345Z,10.30
2023-03-22T04:28:07.590Z,10.30
2023-03-22T04:30:36.423Z,10.40
2023-03-22T04:33:32.561Z,10.40
2023-03-22T04:36:17.568Z,10.40
2023-03-22T04:39:05.851Z,10.40
2023-03-22T04:41:33.942Z,10.40
2023-03-22T04:44:03.811Z,10.40
2023-03-22T04:46:34.553Z,10.40
2023-03-22T04:49:05.409Z,10.50
2023-03-22T04:51:35.343Z,10.50
2023-03-22T04:54:17.694Z,10.50
2023-03-22T04:56:45.033Z,10.50
2023-03-22T04:59:13.176Z,10.50
2023-03-22T05:01:41.211Z,10.50
2023-03-22T05:04:12.373Z,10.50
2023-03-22T05:06:40.644Z,10.50
2023-03-22T05:09:18.205Z,10.50
2023-03-22T05:11:45.469Z,10.60
2023-03-22T05:14:38.692Z,10.50
2023-03-22T05:17:07.215Z,10.50
2023-03-22T05:19:37.129Z,10.50
2023-03-22T05:22:04.194Z,10.50
2023-03-22T05:24:43.045Z,10.50
2023-03-22T05:27:14.506Z,10.50
2023-03-22T05:29:45.158Z,10.50
2023-03-22T05:32:29.359Z,10.40
2023-03-22T05:34:56.558Z,10.40
2023-03-22T05:37:33.759Z,10.40
2023-03-22T05:40:01.192Z,10.30
2023-03-22T05:42:37.772Z,10.30
2023-03-22T05:45:14.804Z,10.20
2023-03-22T05:47:44.338Z,10.10
2023-03-22T05:50:20.943Z,10.10
2023-03-22T05:52:49.476Z,10.10
2023-03-22T05:55:39.529Z,10.00
2023-03-22T05:58:06.466Z,10.00
2023-03-22T06:00:36.754Z,10.00
2023-03-22T06:03:24.035Z,9.90
2023-03-22T06:06:10.701Z,9.80
2023-03-22T06:08:44.611Z,9.80
2023-03-22T06:11:12.920Z,9.80
2023-03-22T06:13:40.121Z,9.80
2023-03-22T06:16:08.147Z,9.70
2023-03-22T06:18:35.124Z,9.70
2023-03-22T06:21:07.287Z,9.60
2023-03-22T06:23:34.222Z,9.60
2023-03-22T06:26:01.228Z,9.60
2023-03-22T06:28:29.956Z,9.50
2023-03-22T06:30:58.654Z,9.50
2023-03-22T06:33:38.799Z,9.40
2023-03-22T06:36:17.333Z,9.40
2023-03-22T06:39:05.313Z,9.30
2023-03-22T06:41:32.903Z,9.30
2023-03-22T06:44:01.108Z,9.20
2023-03-22T06:46:48.353Z,9.10
2023-03-22T06:49:26.644Z,9.10
2023-03-22T06:51:54.522Z,9.10
2023-03-22T06:54:21.597Z,9.10
2023-03-22T06:56:48.577Z,9.00
2023-03-22T06:59:16.351Z,9.00
2023-03-22T07:01:43.304Z,9.00
2023-03-22T07:04:11.502Z,9.00
2023-03-22T07:06:39.376Z,8.90
2023-03-22T07:09:06.792Z,8.90
2023-03-22T07:11:36.329Z,8.90
2023-03-22T07:14:04.117Z,8.90
2023-03-22T07:16:49.116Z,8.90
2023-03-22T07:19:18.574Z,8.90
2023-03-22T07:21:46.481Z,8.80
2023-03-22T07:24:14.173Z,8.80
2023-03-22T07:26:41.784Z,8.80
2023-03-22T07:29:12.073Z,8.80
2023-03-22T07:31:40.106Z,8.70
2023-03-22T07:34:12.329Z,8.70
2023-03-22T07:36:59.846Z,8.70
2023-03-22T07:39:29.016Z,8.70
2023-03-22T07:41:56.125Z,8.60
2023-03-22T07:44:23.014Z,8.60
2023-03-22T07:47:11.526Z,8.50
2023-03-22T07:49:49.513Z,8.50
2023-03-22T07:52:20.817Z,8.50
2023-03-22T07:54:48.623Z,8.50
2023-03-22T07:57:16.524Z,8.50
2023-03-22T07:59:53.426Z,8.50
2023-03-22T08:02:20.456Z,8.50
2023-03-22T08:04:55.759Z,8.50
2023-03-22T08:07:31.709Z,8.60
2023-03-22T08:09:59.828Z,8.60
2023-03-22T08:12:28.086Z,8.70
2023-03-22T08:15:04.238Z,8.70
2023-03-22T08:17:32.508Z,8.70
2023-03-22T08:19:59.512Z,8.70
2023-03-22T08:22:42.926Z,8.80
2023-03-22T08:25:29.567Z,8.70
2023-03-22T08:28:05.172Z,8.80
2023-03-22T08:30:32.339Z,8.80
2023-03-22T08:32:59.261Z,8.80
2023-03-22T08:35:28.254Z,8.80
2023-03-22T08:37:56.432Z,8.80
2023-03-22T08:40:28.620Z,8.80
2023-03-22T08:43:00.137Z,8.80
2023-03-22T08:45:29.173Z,8.80
2023-03-22T08:48:05.318Z,8.90
2023-03-22T08:50:44.286Z,8.90
2023-03-22T08:53:20.342Z,8.90
2023-03-22T08:55:54.292Z,9.00
2023-03-22T08:58:31.608Z,9.00
2023-03-22T09:01:27.054Z,9.10
2023-03-22T09:04:01.934Z,9.20
2023-03-22T09:06:28.914Z,9.40
2023-03-22T09:08:56.275Z,9.60
2023-03-22T09:11:23.704Z,9.80
2023-03-22T09:13:51.104Z,10.10
2023-03-22T09:16:19.117Z,10.50
2023-03-22T09:18:47.224Z,10.80
2023-03-22T09:21:21.886Z,11.10
2023-03-22T09:24:27.362Z,11.40
2023-03-22T09:26:58.649Z,11.70
2023-03-22T09:29:25.661Z,11.90
2023-03-22T09:31:53.687Z,12.10
2023-03-22T09:34:25.795Z,12.20
2023-03-22T09:36:52.897Z,12.50
2023-03-22T09:39:23.391Z,12.80
2023-03-22T09:41:56.115Z,13.00
2023-03-22T09:44:29.316Z,13.30
2023-03-22T09:47:00.087Z,13.70
2023-03-22T09:49:43.611Z,13.90
2023-03-22T09:52:17.987Z,14.20
2023-03-22T09:54:46.033Z,14.30
2023-03-22T09:57:26.655Z,14.60
2023-03-22T10:00:22.728Z,14.80
2023-03-22T10:02:52.756Z,15.00
2023-03-22T10:05:25.688Z,15.40
2023-03-22T10:08:16.367Z,15.50
2023-03-22T10:10:43.445Z,15.50
2023-03-22T10:13:17.969Z,15.50
2023-03-22T10:15:46.062Z,15.40
2023-03-22T10:18:24.587Z,15.60
2023-03-22T10:21:02.315Z,15.70
2023-03-22T10:23:39.211Z,16.00
2023-03-22T10:26:07.696Z,16.20
2023-03-22T10:28:34.585Z,16.40
2023-03-22T10:31:03.699Z,16.70
2023-03-22T10:33:50.369Z,16.90
2023-03-22T10:36:19.180Z,16.90
2023-03-22T10:38:48.242Z,16.90
2023-03-22T10:41:18.533Z,16.90
2023-03-22T10:43:47.684Z,16.90
2023-03-22T10:46:16.946Z,17.00
2023-03-22T10:48:49.691Z,17.00
2023-03-22T10:51:35.359Z,17.10
2023-03-22T10:54:03.400Z,17.30
2023-03-22T10:56:30.288Z,17.20
2023-03-22T10:58:57.471Z,17.30
2023-03-22T11:01:28.941Z,17.30
2023-03-22T11:04:13.238Z,17.50
2023-03-22T11:06:51.995Z,17.60
2023-03-22T11:09:21.698Z,17.70
2023-03-22T11:11:53.582Z,17.70
2023-03-22T11:14:23.023Z,17.80
2023-03-22T11:16:55.290Z,17.80
2023-03-22T11:19:27.186Z,17.90
2023-03-22T11:21:57.505Z,18.10
2023-03-22T11:27:07.098Z,18.40
2023-03-22T11:29:39.758Z,18.50
2023-03-22T11:32:19.361Z,18.70
2023-03-22T11:34:46.545Z,18.80
2023-03-22T11:37:18.095Z,18.90
2023-03-22T11:39:49.679Z,18.90
2023-03-22T11:42:20.966Z,19.00
2023-03-22T11:44:48.019Z,19.00
2023-03-22T11:47:14.984Z,18.80
2023-03-22T11:49:49.923Z,18.70
2023-03-22T11:52:18.465Z,18.60
2023-03-22T11:54:46.109Z,18.60
2023-03-22T11:57:26.715Z,18.70
2023-03-22T11:59:53.594Z,18.60
2023-03-22T12:02:24.062Z,18.60
2023-03-22T12:04:53.622Z,18.50
2023-03-22T12:07:24.726Z,18.60
2023-03-22T12:10:10.349Z,18.50
2023-03-22T12:12:40.926Z,18.50
2023-03-22T12:15:17.666Z,18.40
2023-03-22T12:17:52.391Z,18.20
2023-03-22T12:20:39.717Z,18.10
2023-03-22T12:23:12.327Z,17.90
2023-03-22T12:25:40.739Z,17.80
2023-03-22T12:28:14.324Z,17.70
2023-03-22T12:30:43.462Z,17.60
2023-03-22T12:33:22.416Z,17.60
2023-03-22T12:35:51.656Z,17.40
2023-03-22T12:38:34.054Z,17.30
2023-03-22T12:41:02.924Z,17.20
2023-03-22T12:43:48.539Z,17.10
2023-03-22T12:46:19.150Z,17.10
2023-03-22T12:48:48.571Z,17.00
2023-03-22T12:51:15.921Z,16.90
2023-03-22T12:53:45.518Z,17.00
2023-03-22T12:56:14.608Z,16.90
2023-03-22T12:58:44.356Z,17.00
2023-03-22T13:01:24.591Z,16.90
2023-03-22T13:03:53.670Z,16.80
2023-03-22T13:06:53.581Z,16.60
2023-03-22T13:09:34.967Z,16.50
2023-03-22T13:12:17.249Z,16.30
2023-03-22T13:14:53.255Z,16.30
2023-03-22T13:17:23.149Z,16.20
2023-03-22T13:20:05.761Z,15.90
2023-03-22T13:22:38.647Z,15.80
2023-03-22T13:25:06.927Z,15.60
2023-03-22T13:27:38.198Z,15.40
2023-03-22T13:30:14.546Z,15.30
2023-03-22T13:32:52.601Z,15.10
2023-03-22T13:35:23.751Z,15.00
2023-03-22T13:37:51.427Z,14.80
2023-03-22T13:40:32.005Z,14.70
2023-03-22T13:43:11.175Z,14.40
2023-03-22T13:45:56.875Z,14.30
2023-03-22T13:48:53.336Z,14.40
2023-03-22T13:51:23.588Z,14.10
2023-03-22T13:54:09.276Z,14.30
2023-03-22T13:56:42.260Z,14.30
2023-03-22T13:59:33.990Z,14.20
2023-03-22T14:02:22.270Z,14.10
2023-03-22T14:04:49.305Z,14.10
2023-03-22T14:07:19.586Z,14.00
2023-03-22T14:09:51.167Z,14.10
2023-03-22T14:12:20.749Z,14.00
2023-03-22T14:14:50.666Z,13.90
2023-03-22T14:17:34.159Z,14.00
2023-03-22T14:20:01.623Z,13.80
